createdAt,value
2023-02-17T00:01:29.786Z,2.57
2023-02-17T00:03:56.865Z,2.20
2023-02-17T00:06:26.210Z,2.67
2023-02-17T00:08:53.287Z,3.07
2023-02-17T00:11:20.776Z,2.30
2023-02-17T00:13:47.609Z,2.70
2023-02-17T00:16:23.392Z,2.83
2023-02-17T00:18:56.194Z,2.63
2023-02-17T00:21:25.340Z,2.30
2023-02-17T00:23:53.340Z,2.60
2023-02-17T00:26:21.378Z,2.63
2023-02-17T00:28:49.082Z,3.00
2023-02-17T00:31:25.154Z,2.53
2023-02-17T00:33:55.533Z,3.07
2023-02-17T00:36:22.569Z,2.83
2023-02-17T00:38:49.688Z,3.23
2023-02-17T00:41:19.885Z,3.90
2023-02-17T00:43:47.749Z,2.60
2023-02-17T00:46:15.608Z,3.57
2023-02-17T00:48:42.616Z,2.90
2023-02-17T00:51:10.059Z,2.63
2023-02-17T00:53:37.347Z,3.00
2023-02-17T00:56:05.591Z,2.70
2023-02-17T00:58:32.525Z,3.17
2023-02-17T01:00:59.439Z,3.13
2023-02-17T01:03:27.103Z,2.90
2023-02-17T01:05:55.553Z,2.90
2023-02-17T01:08:23.769Z,2.90
2023-02-17T01:10:51.450Z,3.23
2023-02-17T01:13:18.988Z,2.93
2023-02-17T01:15:48.972Z,3.10
2023-02-17T01:18:16.887Z,2.87
2023-02-17T01:20:44.139Z,3.20
2023-02-17T01:23:12.142Z,3.10
2023-02-17T01:25:45.912Z,3.10
2023-02-17T01:28:19.794Z,2.90
2023-02-17T01:30:47.200Z,3.07
2023-02-17T01:33:14.356Z,3.17
2023-02-17T01:35:41.385Z,2.93
2023-02-17T01:38:08.177Z,2.83
2023-02-17T01:40:35.289Z,3.00
2023-02-17T01:43:02.226Z,2.90
2023-02-17T01:45:31.961Z,3.37
2023-02-17T01:48:00.990Z,2.87
2023-02-17T01:50:52.070Z,2.50
2023-02-17T01:53:24.825Z,3.00
2023-02-17T01:55:52.656Z,2.77
2023-02-17T01:58:23.161Z,2.80
2023-02-17T02:00:52.754Z,2.93
2023-02-17T02:03:20.049Z,2.80
2023-02-17T02:05:47.323Z,2.90
2023-02-17T02:08:15.138Z,2.57
2023-02-17T02:10:42.014Z,2.23
2023-02-17T02:13:09.248Z,2.60
2023-02-17T02:15:59.330Z,2.60
2023-02-17T02:18:46.358Z,2.43
2023-02-17T02:21:13.125Z,2.67
2023-02-17T02:23:54.096Z,2.80
2023-02-17T02:26:38.687Z,2.93
2023-02-17T02:29:34.969Z,3.07
2023-02-17T02:32:38.784Z,2.43
2023-02-17T02:35:05.457Z,2.33
2023-02-17T02:38:01.880Z,2.37
2023-02-17T02:40:34.190Z,2.37
2023-02-17T02:43:02.956Z,2.03
2023-02-17T02:45:30.452Z,2.37
2023-02-17T02:47:58.088Z,2.30
2023-02-17T02:51:01.686Z,2.37
2023-02-17T02:54:01.477Z,1.97
2023-02-17T02:56:44.800Z,2.03
2023-02-17T02:59:30.131Z,2.33
2023-02-17T03:02:11.593Z,1.73
2023-02-17T03:04:44.118Z,2.20
2023-02-17T03:07:27.566Z,2.63
2023-02-17T03:09:58.372Z,2.10
2023-02-17T03:12:26.311Z,3.00
2023-02-17T03:14:57.158Z,2.37
2023-02-17T03:17:23.963Z,2.43
2023-02-17T03:19:51.091Z,2.80
2023-02-17T03:22:34.039Z,2.37
2023-02-17T03:25:01.312Z,3.07
2023-02-17T03:27:28.424Z,2.83
2023-02-17T03:29:55.537Z,2.83
2023-02-17T03:32:22.545Z,3.37
2023-02-17T03:34:49.430Z,2.93
2023-02-17T03:37:16.422Z,3.10
2023-02-17T03:39:43.215Z,3.20
2023-02-17T03:42:09.992Z,3.00
2023-02-17T03:44:36.728Z,3.60
2023-02-17T03:47:03.492Z,3.37
2023-02-17T03:49:30.265Z,3.20
2023-02-17T03:51:58.228Z,2.93
2023-02-17T03:54:25.404Z,2.60
2023-02-17T03:56:52.197Z,3.00
2023-02-17T03:59:19.039Z,2.93
2023-02-17T04:01:45.778Z,2.93
2023-02-17T04:04:12.583Z,3.23
2023-02-17T04:06:39.434Z,2.50
2023-02-17T04:09:06.459Z,2.57
2023-02-17T04:11:33.237Z,2.53
2023-02-17T04:13:59.956Z,2.53
2023-02-17T04:16:26.886Z,2.50
2023-02-17T04:18:53.666Z,2.53
2023-02-17T04:21:20.400Z,2.97
2023-02-17T04:23:47.213Z,2.83
2023-02-17T04:26:14.119Z,2.70
2023-02-17T04:28:42.650Z,3.27
2023-02-17T04:31:09.950Z,3.10
2023-02-17T04:33:37.961Z,3.03
2023-02-17T04:36:05.622Z,3.37
2023-02-17T04:38:33.900Z,3.23
2023-02-17T04:41:02.002Z,3.60
2023-02-17T04:43:29.106Z,3.00
2023-02-17T04:45:56.320Z,2.93
2023-02-17T04:48:23.788Z,2.80
2023-02-17T04:50:51.153Z,2.60
2023-02-17T04:53:18.303Z,2.67
2023-02-17T04:55:47.638Z,2.40
2023-02-17T04:58:14.317Z,2.13
2023-02-17T05:00:41.104Z,2.20
2023-02-17T05:03:07.810Z,2.33
2023-02-17T05:05:34.858Z,2.60
2023-02-17T05:08:01.633Z,2.00
2023-02-17T05:10:28.588Z,2.17
2023-02-17T05:12:55.302Z,2.00
2023-02-17T05:15:22.255Z,2.07
2023-02-17T05:17:48.929Z,2.37
2023-02-17T05:20:15.676Z,1.83
2023-02-17T05:22:42.528Z,1.67
2023-02-17T05:25:09.414Z,1.73
2023-02-17T05:27:36.187Z,1.80
2023-02-17T05:30:03.534Z,2.07
2023-02-17T05:32:30.408Z,1.90
2023-02-17T05:34:57.209Z,1.70
2023-02-17T05:37:23.975Z,2.30
2023-02-17T05:39:50.716Z,2.47
2023-02-17T05:42:18.468Z,1.60
2023-02-17T05:44:45.244Z,1.90
2023-02-17T05:47:12.135Z,1.80
2023-02-17T05:49:38.907Z,1.80
2023-02-17T05:52:05.854Z,1.70
2023-02-17T05:54:32.745Z,1.47
2023-02-17T05:56:59.679Z,1.80
2023-02-17T05:59:26.516Z,1.80
2023-02-17T06:01:53.352Z,1.70
2023-02-17T06:04:20.255Z,1.80
2023-02-17T06:06:47.265Z,1.80
2023-02-17T06:09:14.508Z,1.70
2023-02-17T06:11:42.348Z,1.90
2023-02-17T06:14:09.162Z,1.87
2023-02-17T06:16:36.059Z,1.80
2023-02-17T06:19:05.079Z,2.07
2023-02-17T06:21:32.977Z,1.87
2023-02-17T06:24:00.821Z,1.70
2023-02-17T06:26:27.837Z,1.97
2023-02-17T06:28:54.590Z,2.40
2023-02-17T06:31:21.599Z,2.00
2023-02-17T06:33:48.597Z,2.00
2023-02-17T06:36:16.392Z,2.10
2023-02-17T06:38:43.192Z,1.90
2023-02-17T06:41:11.005Z,1.80
2023-02-17T06:43:37.803Z,3.40
2023-02-17T06:46:05.133Z,2.23
2023-02-17T06:48:33.128Z,2.00
2023-02-17T06:51:00.900Z,1.90
2023-02-17T06:53:27.990Z,1.97
2023-02-17T06:55:55.085Z,1.80
2023-02-17T06:58:22.980Z,1.90
2023-02-17T07:00:49.821Z,2.00
2023-02-17T07:03:16.629Z,2.27
2023-02-17T07:05:43.454Z,1.87
2023-02-17T07:08:10.265Z,2.10
2023-02-17T07:10:37.566Z,1.90
2023-02-17T07:13:04.421Z,2.60
2023-02-17T07:15:31.392Z,2.00
2023-02-17T07:17:58.279Z,1.90
2023-02-17T07:20:25.177Z,2.33
2023-02-17T07:22:52.110Z,2.10
2023-02-17T07:25:19.125Z,2.10
2023-02-17T07:27:45.791Z,2.50
2023-02-17T07:30:12.984Z,2.03
2023-02-17T07:32:39.814Z,1.93
2023-02-17T07:35:07.254Z,2.50
2023-02-17T07:37:34.491Z,2.07
2023-02-17T07:40:01.401Z,2.30
2023-02-17T07:42:28.626Z,2.10
2023-02-17T07:44:55.528Z,2.73
2023-02-17T07:47:22.416Z,2.30
2023-02-17T07:49:49.286Z,2.00
2023-02-17T07:52:19.123Z,2.27
2023-02-17T07:54:45.825Z,2.03
2023-02-17T07:57:12.690Z,2.00
2023-02-17T07:59:39.462Z,2.33
2023-02-17T08:02:06.309Z,2.20
2023-02-17T08:04:33.164Z,2.33
2023-02-17T08:07:00.031Z,2.13
2023-02-17T08:09:45.424Z,2.20
2023-02-17T08:12:35.852Z,1.87
2023-02-17T08:15:02.792Z,2.20
2023-02-17T08:17:30.089Z,2.00
2023-02-17T08:19:57.108Z,1.87
2023-02-17T08:22:23.874Z,2.10
2023-02-17T08:24:50.776Z,2.07
2023-02-17T08:27:18.390Z,2.00
2023-02-17T08:29:45.899Z,1.60
2023-02-17T08:32:15.095Z,2.10
2023-02-17T08:34:42.166Z,2.00
2023-02-17T08:37:09.886Z,1.80
2023-02-17T08:39:37.742Z,2.17
2023-02-17T08:42:05.416Z,2.00
2023-02-17T08:44:36.005Z,2.20
2023-02-17T08:47:05.000Z,2.03
2023-02-17T08:49:32.737Z,2.57
2023-02-17T08:52:02.319Z,2.50
2023-02-17T08:54:29.224Z,2.47
2023-02-17T08:56:56.477Z,1.63
2023-02-17T08:59:23.395Z,1.90
2023-02-17T09:01:50.783Z,2.27
2023-02-17T09:04:18.840Z,2.07
2023-02-17T09:06:56.645Z,1.63
2023-02-17T09:09:26.901Z,1.60
2023-02-17T09:11:55.593Z,1.90
2023-02-17T09:14:24.042Z,1.80
2023-02-17T09:16:52.250Z,1.70
2023-02-17T09:19:19.460Z,1.60
2023-02-17T09:21:46.320Z,1.60
2023-02-17T09:24:13.213Z,1.60
2023-02-17T09:26:40.619Z,2.10
2023-02-17T09:29:07.755Z,1.60
2023-02-17T09:31:36.015Z,1.83
2023-02-17T09:34:07.185Z,1.63
2023-02-17T09:36:39.656Z,1.70
2023-02-17T09:39:07.119Z,1.40
2023-02-17T09:42:00.483Z,2.07
2023-02-17T09:44:42.155Z,1.50
2023-02-17T09:47:25.897Z,1.60
2023-02-17T09:50:01.699Z,1.30
2023-02-17T09:52:37.842Z,1.50
2023-02-17T09:55:13.549Z,1.10
2023-02-17T09:58:08.239Z,1.13
2023-02-17T10:00:51.338Z,1.43
2023-02-17T10:03:36.157Z,1.10
2023-02-17T10:06:15.514Z,1.20
2023-02-17T10:08:54.103Z,1.30
2023-02-17T10:11:35.869Z,1.17
2023-02-17T10:14:13.401Z,1.10
2023-02-17T10:16:48.144Z,0.97
2023-02-17T10:19:33.870Z,1.10
2023-02-17T10:22:17.310Z,1.07
2023-02-17T10:24:45.025Z,1.27
2023-02-17T10:27:28.637Z,1.33
2023-02-17T10:30:12.048Z,1.20
2023-02-17T10:33:15.588Z,1.30
2023-02-17T10:35:52.579Z,1.10
2023-02-17T10:38:19.353Z,0.83
2023-02-17T10:40:49.240Z,0.93
2023-02-17T10:43:24.390Z,0.90
2023-02-17T10:45:51.738Z,1.00
2023-02-17T10:48:28.265Z,0.70
2023-02-17T10:51:00.117Z,1.00
2023-02-17T10:53:32.510Z,1.03
2023-02-17T10:56:17.081Z,0.80
2023-02-17T10:58:57.998Z,0.77
2023-02-17T11:04:14.324Z,0.60
2023-02-17T11:07:26.583Z,2.00
2023-02-17T11:09:58.221Z,0.90
2023-02-17T11:12:40.420Z,0.87
2023-02-17T11:15:18.252Z,0.70
2023-02-17T11:17:46.122Z,0.63
2023-02-17T11:20:16.012Z,0.67
2023-02-17T11:22:46.818Z,0.90
2023-02-17T11:25:22.311Z,0.60
2023-02-17T11:27:54.747Z,0.80
2023-02-17T11:30:22.358Z,0.90
2023-02-17T11:32:50.171Z,0.93
2023-02-17T11:35:35.906Z,0.70
2023-02-17T11:38:09.708Z,0.93
2023-02-17T11:40:36.624Z,0.80
2023-02-17T11:43:04.844Z,0.80
2023-02-17T11:45:43.514Z,0.77
2023-02-17T11:48:29.192Z,0.73
2023-02-17T11:51:08.132Z,0.80
2023-02-17T11:54:03.902Z,0.60
2023-02-17T11:56:39.292Z,0.60
2023-02-17T11:59:18.340Z,0.70
2023-02-17T12:01:52.199Z,0.80
2023-02-17T12:04:34.118Z,0.70
2023-02-17T12:07:09.673Z,0.80
2023-02-17T12:09:55.090Z,0.70
2023-02-17T12:12:47.554Z,0.73
2023-02-17T12:15:27.802Z,0.77
2023-02-17T12:18:14.916Z,0.90
2023-02-17T12:20:50.575Z,0.67
2023-02-17T12:23:42.145Z,0.90
2023-02-17T12:26:34.702Z,0.67
2023-02-17T12:29:15.078Z,0.80
2023-02-17T12:31:56.874Z,0.60
2023-02-17T12:34:59.395Z,0.50
2023-02-17T12:37:33.317Z,0.93
2023-02-17T12:40:08.374Z,0.60
2023-02-17T12:42:57.379Z,0.80
2023-02-17T12:45:36.289Z,0.60
2023-02-17T12:48:10.006Z,0.83
2023-02-17T12:50:57.996Z,0.50
2023-02-17T12:53:49.520Z,0.67
2023-02-17T12:56:25.365Z,0.70
2023-02-17T12:58:56.442Z,0.60
2023-02-17T13:01:29.138Z,0.63
2023-02-17T13:03:59.717Z,0.70
2023-02-17T13:06:44.585Z,0.70
2023-02-17T13:09:30.419Z,0.93
2023-02-17T13:12:23.085Z,0.57
2023-02-17T13:14:52.842Z,0.57
2023-02-17T13:17:28.799Z,0.87
2023-02-17T13:20:10.287Z,0.70
2023-02-17T13:22:39.683Z,0.73
2023-02-17T13:25:11.288Z,0.60
2023-02-17T13:27:40.295Z,0.70
2023-02-17T13:30:22.704Z,0.73
2023-02-17T13:33:05.961Z,0.80
2023-02-17T13:35:35.838Z,0.80
2023-02-17T13:38:03.592Z,0.90
2023-02-17T13:40:30.592Z,0.90
2023-02-17T13:42:58.120Z,0.70
2023-02-17T13:45:59.837Z,0.83
2023-02-17T13:48:32.109Z,0.80
2023-02-17T14:12:46.369Z,0.80
2023-02-17T14:15:23.447Z,0.90
2023-02-17T14:30:46.353Z,0.67
2023-02-17T14:42:00.390Z,0.70
2023-02-17T14:44:27.161Z,0.90
2023-02-17T14:46:53.967Z,0.80
2023-02-17T14:49:20.675Z,0.90
2023-02-17T14:51:47.476Z,0.70
2023-02-17T14:54:16.778Z,1.37
2023-02-17T14:57:02.345Z,0.90
2023-02-17T14:59:29.173Z,0.80
2023-02-17T15:01:56.477Z,0.93
2023-02-17T15:04:23.355Z,1.10
2023-02-17T15:06:54.410Z,1.00
2023-02-17T15:09:29.683Z,1.07
2023-02-17T15:11:57.177Z,1.13
2023-02-17T15:14:24.666Z,1.47
2023-02-17T15:16:51.504Z,4.77
2023-02-17T15:19:18.348Z,2.73
2023-02-17T15:21:50.680Z,1.20
2023-02-17T15:24:20.617Z,1.00
2023-02-17T15:26:48.053Z,1.50
2023-02-17T15:29:23.092Z,1.17
2023-02-17T15:31:51.651Z,1.10
2023-02-17T15:34:20.754Z,1.10
2023-02-17T15:36:47.828Z,1.57
2023-02-17T15:39:18.374Z,1.40
2023-02-17T15:41:46.994Z,1.20
2023-02-17T15:44:26.086Z,1.20
2023-02-17T15:46:55.259Z,1.10
2023-02-17T15:49:22.796Z,1.10
2023-02-17T15:51:49.683Z,1.50
2023-02-17T15:54:19.212Z,1.23
2023-02-17T15:56:50.656Z,1.50
2023-02-17T15:59:23.368Z,1.20
2023-02-17T16:01:50.789Z,1.00
2023-02-17T16:04:17.915Z,1.40
2023-02-17T16:06:44.996Z,1.50
2023-02-17T16:09:12.107Z,1.07
2023-02-17T16:11:55.990Z,1.70
2023-02-17T16:14:36.049Z,1.77
2023-02-17T16:17:04.600Z,1.33
2023-02-17T16:19:31.595Z,1.33
2023-02-17T16:21:58.439Z,1.90
2023-02-17T16:24:25.210Z,1.30
2023-02-17T16:26:51.992Z,1.87
2023-02-17T16:29:21.727Z,1.50
2023-02-17T16:31:49.431Z,2.13
2023-02-17T16:34:20.904Z,1.70
2023-02-17T16:36:50.026Z,1.70
2023-02-17T16:39:20.044Z,1.47
2023-02-17T16:41:47.471Z,1.47
2023-02-17T16:44:17.383Z,1.40
2023-02-17T16:46:52.757Z,1.40
2023-02-17T16:49:32.552Z,1.50
2023-02-17T16:52:16.652Z,1.97
2023-02-17T16:54:43.350Z,1.70
2023-02-17T16:57:18.239Z,1.57
2023-02-17T16:59:45.370Z,1.97
2023-02-17T17:02:12.921Z,1.80
2023-02-17T17:04:40.243Z,1.60
2023-02-17T17:07:08.031Z,1.70
2023-02-17T17:09:39.534Z,2.10
2023-02-17T17:12:18.147Z,1.90
2023-02-17T17:14:50.797Z,1.70
2023-02-17T17:17:18.653Z,1.90
2023-02-17T17:19:45.409Z,1.90
2023-02-17T17:22:12.664Z,1.70
2023-02-17T17:24:39.324Z,1.73
2023-02-17T17:27:06.757Z,2.33
2023-02-17T17:29:33.522Z,2.70
2023-02-17T17:32:00.483Z,1.70
2023-02-17T17:34:27.600Z,1.80
2023-02-17T17:36:54.355Z,2.00
2023-02-17T17:39:23.355Z,4.23
2023-02-17T17:41:50.875Z,2.30
2023-02-17T17:44:20.493Z,2.03
2023-02-17T17:46:47.483Z,1.90
2023-02-17T17:49:15.020Z,1.70
2023-02-17T17:51:41.836Z,2.60
2023-02-17T17:54:09.360Z,2.03
2023-02-17T17:56:39.312Z,1.70
2023-02-17T17:59:06.825Z,1.80
2023-02-17T18:01:33.874Z,2.13
2023-02-17T18:04:01.129Z,1.80
2023-02-17T18:06:36.460Z,1.97
2023-02-17T18:09:06.440Z,1.60
2023-02-17T18:11:34.753Z,1.80
2023-02-17T18:14:05.774Z,1.50
2023-02-17T18:16:33.780Z,1.70
2023-02-17T18:19:02.668Z,1.87
2023-02-17T18:21:29.418Z,2.13
2023-02-17T18:23:56.429Z,1.93
2023-02-17T18:26:23.644Z,1.80
2023-02-17T18:28:50.440Z,2.23
2023-02-17T18:31:17.767Z,2.17
2023-02-17T18:33:44.795Z,2.47
2023-02-17T18:36:15.015Z,3.27
2023-02-17T18:38:42.105Z,1.70
2023-02-17T18:41:15.932Z,2.00
2023-02-17T18:43:42.740Z,2.00
2023-02-17T18:46:09.763Z,2.37
2023-02-17T18:48:36.936Z,1.67
2023-02-17T18:51:12.930Z,1.53
2023-02-17T18:53:41.710Z,1.70
2023-02-17T18:56:16.932Z,1.70
2023-02-17T18:58:43.880Z,1.70
2023-02-17T19:01:19.233Z,2.03
2023-02-17T19:03:46.430Z,2.00
2023-02-17T19:06:18.538Z,2.47
2023-02-17T19:08:47.024Z,3.57
2023-02-17T19:11:15.912Z,5.30
2023-02-17T19:13:42.795Z,4.70
2023-02-17T19:16:14.130Z,8.00
2023-02-17T19:18:42.992Z,4.20
2023-02-17T19:21:10.166Z,3.57
2023-02-17T19:23:37.321Z,6.90
2023-02-17T19:26:07.132Z,2.70
2023-02-17T19:28:35.494Z,1.80
2023-02-17T19:31:05.543Z,1.10
2023-02-17T19:33:32.392Z,1.50
2023-02-17T19:35:59.109Z,1.80
2023-02-17T19:38:25.877Z,1.90
2023-02-17T19:40:52.627Z,1.70
2023-02-17T19:43:19.312Z,1.90
2023-02-17T19:45:46.495Z,1.70
2023-02-17T19:48:13.232Z,1.50
2023-02-17T19:50:40.038Z,1.20
2023-02-17T19:53:07.510Z,1.30
2023-02-17T19:55:34.558Z,1.73
2023-02-17T19:58:01.432Z,2.10
2023-02-17T20:00:28.754Z,2.73
2023-02-17T20:02:55.828Z,4.30
2023-02-17T20:05:22.845Z,1.90
2023-02-17T20:07:50.341Z,1.20
2023-02-17T20:10:17.530Z,0.90
2023-02-17T20:12:44.399Z,0.90
2023-02-17T20:15:11.187Z,1.07
2023-02-17T20:17:39.114Z,0.80
2023-02-17T20:20:07.744Z,0.70
2023-02-17T20:22:34.538Z,0.80
2023-02-17T20:25:01.433Z,0.47
2023-02-17T20:27:28.227Z,0.77
2023-02-17T20:29:54.944Z,0.60
2023-02-17T20:32:21.914Z,1.60
2023-02-17T20:34:50.487Z,0.80
2023-02-17T20:37:18.555Z,1.07
2023-02-17T20:39:45.440Z,1.30
2023-02-17T20:42:12.154Z,2.90
2023-02-17T20:44:38.919Z,1.73
2023-02-17T20:47:05.919Z,3.30
2023-02-17T20:49:32.685Z,2.03
2023-02-17T20:51:59.585Z,1.30
2023-02-17T20:54:27.037Z,1.00
2023-02-17T20:56:54.096Z,1.20
2023-02-17T20:59:20.793Z,1.20
2023-02-17T21:01:48.404Z,1.37
2023-02-17T21:04:15.394Z,1.50
2023-02-17T21:06:43.137Z,1.73
2023-02-17T21:09:15.610Z,1.50
2023-02-17T21:11:42.523Z,1.70
2023-02-17T21:14:09.736Z,2.60
2023-02-17T21:16:36.930Z,1.40
2023-02-17T21:19:04.796Z,1.70
2023-02-17T21:21:32.645Z,4.93
2023-02-17T21:23:59.970Z,1.50
2023-02-17T21:26:27.441Z,1.30
2023-02-17T21:28:54.611Z,2.30
2023-02-17T21:31:21.395Z,3.30
2023-02-17T21:33:48.305Z,1.80
2023-02-17T21:36:17.419Z,1.00
2023-02-17T21:38:44.453Z,1.00
2023-02-17T21:41:18.079Z,1.03
2023-02-17T21:44:03.859Z,1.40
2023-02-17T21:46:30.945Z,3.03
2023-02-17T21:49:00.341Z,2.83
2023-02-17T21:51:27.940Z,2.73
2023-02-17T21:53:54.774Z,2.80
2023-02-17T21:56:23.113Z,1.93
2023-02-17T21:58:52.274Z,1.33
2023-02-17T22:01:19.899Z,1.03
2023-02-17T22:03:46.679Z,1.00
2023-02-17T22:06:17.954Z,0.90
2023-02-17T22:08:45.279Z,1.23
2023-02-17T22:11:24.680Z,2.23
2023-02-17T22:13:56.339Z,2.47
2023-02-17T22:16:23.867Z,1.30
2023-02-17T22:18:51.842Z,1.60
2023-02-17T22:21:18.827Z,1.10
2023-02-17T22:23:45.843Z,1.90
2023-02-17T22:26:17.189Z,1.10
2023-02-17T22:28:44.515Z,0.97
2023-02-17T22:31:17.598Z,1.00
2023-02-17T22:33:44.694Z,1.00
2023-02-17T22:36:14.500Z,0.83
2023-02-17T22:38:41.338Z,1.30
2023-02-17T22:41:12.059Z,1.00
2023-02-17T22:43:40.674Z,1.10
2023-02-17T22:46:08.508Z,0.70
2023-02-17T22:48:37.966Z,1.00
2023-02-17T22:51:06.422Z,2.30
2023-02-17T22:53:34.754Z,1.57
2023-02-17T22:56:01.722Z,2.20
2023-02-17T22:58:28.864Z,1.27
2023-02-17T23:01:11.113Z,1.20
2023-02-17T23:03:38.500Z,1.20
2023-02-17T23:06:08.519Z,1.50
2023-02-17T23:08:35.513Z,1.20
2023-02-17T23:11:10.878Z,1.10
2023-02-17T23:13:38.609Z,1.50
2023-02-17T23:16:06.361Z,2.70
2023-02-17T23:18:34.829Z,1.60
2023-02-17T23:21:08.460Z,1.03
2023-02-17T23:23:35.248Z,0.90
2023-02-17T23:26:02.012Z,1.13
2023-02-17T23:28:28.874Z,0.90
2023-02-17T23:30:55.708Z,1.00
2023-02-17T23:33:24.306Z,1.10
2023-02-17T23:35:51.118Z,1.10
2023-02-17T23:38:20.452Z,1.30
2023-02-17T23:40:51.919Z,0.93
2023-02-17T23:43:19.795Z,1.40
2023-02-17T23:45:46.671Z,1.60
2023-02-17T23:48:13.955Z,1.60
2023-02-17T23:50:41.260Z,2.37
2023-02-17T23:53:08.399Z,2.20
2023-02-17T23:55:35.178Z,1.80
2023-02-17T23:58:01.929Z,1.50
